Time;durP1;ratioP1;P1;durP2;ratioP2;P2;SDS_P1;SDS_P2;PMS_P1;PMS_P2;Temp;Humidity;BMP_temperature;BMP_pressure;BME280_temperature;BME280_humidity;BME280_pressure;Samples;Min_cycle;Max_cycle;Signal;HPM_P1;HPM_P2
2022/03/30 00:00:26;;;;;;;29.45;9.65;;;13.80;42.70;;;;;;5076322;28;20025;-60
2022/03/30 00:02:52;;;;;;;22.50;9.18;;;13.70;42.80;;;;;;5075619;28;20048;-61
2022/03/30 00:05:17;;;;;;;22.60;8.57;;;13.70;42.80;;;;;;5070053;28;20027;-61
2022/03/30 00:07:43;;;;;;;21.98;9.90;;;13.60;43.00;;;;;;5076838;28;20395;-59
2022/03/30 00:10:09;;;;;;;25.38;9.88;;;13.60;43.20;;;;;;5071394;28;20021;-60
2022/03/30 00:12:35;;;;;;;24.65;9.30;;;13.60;43.30;;;;;;5062997;28;20039;-60
2022/03/30 00:15:01;;;;;;;19.95;8.88;;;13.50;43.40;;;;;;5061664;28;20025;-60
2022/03/30 00:17:27;;;;;;;23.02;10.18;;;13.50;43.50;;;;;;5080685;28;20017;-60
2022/03/30 00:19:52;;;;;;;21.23;9.52;;;13.50;43.60;;;;;;5082422;28;20052;-60
2022/03/30 00:22:18;;;;;;;24.90;9.90;;;13.50;43.70;;;;;;5082209;28;20040;-60
2022/03/30 00:24:44;;;;;;;24.35;9.82;;;13.40;43.90;;;;;;5082457;28;20108;-61
2022/03/30 00:27:13;;;;;;;22.63;9.82;;;13.40;44.00;;;;;;5077134;28;20103;-60
2022/03/30 00:29:38;;;;;;;26.65;9.90;;;13.40;44.20;;;;;;5073494;28;20087;-61
2022/03/30 00:32:05;;;;;;;18.35;9.52;;;13.40;44.20;;;;;;5083790;28;20036;-60
2022/03/30 00:34:31;;;;;;;22.30;10.25;;;13.30;44.20;;;;;;5065867;28;20021;-60
2022/03/30 00:36:57;;;;;;;20.23;9.68;;;13.30;44.40;;;;;;5075377;28;20031;-60
2022/03/30 00:39:22;;;;;;;21.05;10.60;;;13.30;44.40;;;;;;5051769;28;20039;-61
2022/03/30 00:41:48;;;;;;;22.08;10.35;;;13.20;44.40;;;;;;5048403;28;20029;-61
2022/03/30 00:44:14;;;;;;;23.00;9.43;;;13.20;44.60;;;;;;5069617;28;20040;-62
2022/03/30 00:46:44;;;;;;;23.05;9.82;;;13.20;44.90;;;;;;5066576;28;20085;-60
2022/03/30 00:49:10;;;;;;;29.10;10.73;;;13.10;44.90;;;;;;5065627;28;20052;-60
2022/03/30 00:51:36;;;;;;;21.30;9.82;;;13.10;45.00;;;;;;5071663;28;20048;-60
2022/03/30 00:54:02;;;;;;;22.35;10.25;;;13.10;45.10;;;;;;5085087;28;20064;-60
2022/03/30 00:56:32;;;;;;;25.33;8.93;;;13.10;45.40;;;;;;5086925;28;20127;-60
2022/03/30 00:59:00;;;;;;;23.63;9.13;;;13.10;45.60;;;;;;5088958;28;20032;-59
2022/03/30 01:01:27;;;;;;;21.65;9.68;;;13.00;45.60;;;;;;5083056;28;20139;-60
2022/03/30 01:03:52;;;;;;;20.00;8.45;;;13.00;45.50;;;;;;5084744;28;20032;-62
2022/03/30 01:06:18;;;;;;;19.15;8.60;;;13.00;45.60;;;;;;5083613;28;20532;-60
2022/03/30 01:08:45;;;;;;;24.10;9.50;;;13.00;45.70;;;;;;5083214;28;20071;-60
2022/03/30 01:11:12;;;;;;;34.25;10.27;;;13.00;45.70;;;;;;5083423;28;20028;-60
2022/03/30 01:13:39;;;;;;;23.58;9.25;;;13.00;45.70;;;;;;5083643;28;20112;-60
2022/03/30 01:16:05;;;;;;;16.55;8.90;;;13.00;45.70;;;;;;5069941;28;20073;-60
2022/03/30 01:18:38;;;;;;;21.83;9.10;;;13.00;45.80;;;;;;5085245;28;20020;-62
2022/03/30 01:21:04;;;;;;;21.85;8.65;;;13.00;46.30;;;;;;5074088;28;20458;-61
2022/03/30 01:23:30;;;;;;;25.42;9.25;;;13.00;46.00;;;;;;5085597;28;20063;-60
2022/03/30 01:25:56;;;;;;;23.27;8.65;;;13.00;46.20;;;;;;5104047;28;20040;-60
2022/03/30 01:28:27;;;;;;;20.40;8.98;;;13.00;46.20;;;;;;5086859;28;20043;-60
2022/03/30 01:33:42;;;;;;;18.17;8.80;;;12.90;46.20;;;;;;5087697;28;20108;-60
2022/03/30 01:36:08;;;;;;;24.15;9.38;;;12.90;46.30;;;;;;5088419;28;20016;-60
2022/03/30 01:38:34;;;;;;;32.13;9.45;;;12.90;46.50;;;;;;5103975;28;20020;-60
2022/03/30 01:40:59;;;;;;;23.90;9.23;;;12.90;46.50;;;;;;5103576;28;20032;-60
2022/03/30 01:43:28;;;;;;;27.40;10.32;;;12.90;46.60;;;;;;5087128;28;20051;-60
2022/03/30 01:45:54;;;;;;;22.52;9.40;;;12.80;46.70;;;;;;5088735;28;20027;-60
2022/03/30 01:48:20;;;;;;;24.20;9.30;;;12.80;46.70;;;;;;5087282;28;20060;-59
2022/03/30 01:50:45;;;;;;;19.92;9.43;;;12.80;46.90;;;;;;5086849;28;20378;-60
2022/03/30 01:53:11;;;;;;;21.65;9.88;;;12.80;47.00;;;;;;5074273;28;20112;-60
2022/03/30 01:55:37;;;;;;;16.58;9.48;;;12.70;47.00;;;;;;5065493;28;20049;-60
2022/03/30 01:58:03;;;;;;;22.45;9.88;;;12.70;47.10;;;;;;5058776;28;20035;-60
2022/03/30 02:00:29;;;;;;;27.92;9.93;;;12.70;47.10;;;;;;5063036;28;20089;-60
2022/03/30 02:02:55;;;;;;;25.20;10.95;;;12.70;47.10;;;;;;5056343;28;20067;-60
2022/03/30 02:05:21;;;;;;;24.83;9.38;;;12.70;47.20;;;;;;5059801;28;20029;-61
2022/03/30 02:07:47;;;;;;;18.73;9.02;;;12.60;47.20;;;;;;5075221;28;20039;-60
2022/03/30 02:10:13;;;;;;;21.60;8.93;;;12.60;47.30;;;;;;5077294;28;20028;-60
2022/03/30 02:12:39;;;;;;;22.08;9.23;;;12.60;47.40;;;;;;5068015;28;20046;-61
2022/03/30 02:15:05;;;;;;;18.25;8.82;;;12.60;47.60;;;;;;5073000;28;20051;-59
2022/03/30 02:17:32;;;;;;;24.95;9.57;;;12.50;47.70;;;;;;5079498;28;20039;-60
2022/03/30 02:19:57;;;;;;;17.50;8.93;;;12.50;47.60;;;;;;5063479;28;20029;-60
2022/03/30 02:22:23;;;;;;;24.77;9.23;;;12.40;47.60;;;;;;5070998;28;20032;-60
2022/03/30 02:24:50;;;;;;;23.98;9.45;;;12.40;47.70;;;;;;5071563;28;20020;-60
2022/03/30 02:27:19;;;;;;;21.10;9.75;;;12.40;47.80;;;;;;5067485;28;20021;-60
2022/03/30 02:29:48;;;;;;;19.50;9.15;;;12.40;47.90;;;;;;5070304;28;20047;-60
2022/03/30 02:32:14;;;;;;;16.98;8.35;;;12.30;47.90;;;;;;5066718;28;20029;-60
2022/03/30 02:34:39;;;;;;;17.00;8.75;;;12.30;47.90;;;;;;5073522;28;20020;-60
2022/03/30 02:37:05;;;;;;;19.58;8.00;;;12.30;48.00;;;;;;5083593;28;20028;-60
2022/03/30 02:39:31;;;;;;;23.38;9.73;;;12.30;48.00;;;;;;5066696;28;20060;-60
2022/03/30 02:41:57;;;;;;;22.30;8.85;;;12.20;48.10;;;;;;5071471;28;20512;-60
2022/03/30 02:44:22;;;;;;;18.55;9.30;;;12.20;48.20;;;;;;5066933;28;20044;-60
2022/03/30 02:46:49;;;;;;;29.90;9.90;;;12.20;48.20;;;;;;5082079;28;20047;-61
2022/03/30 02:49:15;;;;;;;22.98;9.07;;;12.10;48.30;;;;;;5056484;28;20574;-60
2022/03/30 02:51:40;;;;;;;20.27;8.88;;;12.10;48.40;;;;;;5074396;28;20053;-60
2022/03/30 02:54:07;;;;;;;18.17;9.23;;;12.10;48.50;;;;;;5091145;28;20036;-60
2022/03/30 02:56:33;;;;;;;18.33;9.15;;;12.00;48.60;;;;;;5087298;28;20545;-60
2022/03/30 02:58:59;;;;;;;18.90;9.38;;;12.00;48.70;;;;;;5085461;28;20060;-60
2022/03/30 03:01:24;;;;;;;20.05;8.90;;;12.00;49.00;;;;;;5086757;28;20031;-60
2022/03/30 03:03:50;;;;;;;19.05;9.40;;;12.00;49.10;;;;;;5081039;28;20375;-61
2022/03/30 03:06:16;;;;;;;21.45;9.10;;;11.90;49.10;;;;;;5086856;28;20032;-60
2022/03/30 03:08:41;;;;;;;20.70;9.50;;;11.90;49.20;;;;;;5086045;28;20505;-60
2022/03/30 03:11:07;;;;;;;21.92;9.35;;;11.80;49.20;;;;;;5087659;28;20025;-60
2022/03/30 03:13:33;;;;;;;18.52;9.18;;;11.80;49.30;;;;;;5082014;28;20058;-60
2022/03/30 03:15:58;;;;;;;20.70;9.25;;;11.70;49.30;;;;;;5087252;28;20032;-60
2022/03/30 03:18:24;;;;;;;25.13;8.70;;;11.70;50.10;;;;;;5086607;28;20020;-60
2022/03/30 03:20:50;;;;;;;22.77;8.10;;;11.70;49.50;;;;;;5086402;28;20048;-60
2022/03/30 03:23:17;;;;;;;20.83;8.85;;;11.70;49.50;;;;;;5084743;28;20036;-59
2022/03/30 03:25:44;;;;;;;21.17;8.60;;;11.70;49.50;;;;;;5094138;28;20106;-60
2022/03/30 03:28:11;;;;;;;18.23;8.18;;;11.60;49.40;;;;;;5088288;28;20029;-60
2022/03/30 03:30:38;;;;;;;27.88;8.15;;;11.60;49.40;;;;;;5086091;28;20086;-60
2022/03/30 03:33:05;;;;;;;24.00;8.02;;;11.60;49.40;;;;;;5092195;28;20055;-60
2022/03/30 03:35:31;;;;;;;20.48;8.23;;;11.60;49.60;;;;;;5084172;28;20029;-60
2022/03/30 03:37:58;;;;;;;21.35;8.48;;;11.60;49.60;;;;;;5087575;28;20029;-60
2022/03/30 03:40:24;;;;;;;25.75;8.45;;;11.60;49.70;;;;;;5085411;28;20032;-61
2022/03/30 03:42:50;;;;;;;24.55;7.78;;;11.60;49.70;;;;;;5089054;28;20032;-60
2022/03/30 03:45:16;;;;;;;21.98;8.55;;;11.60;49.60;;;;;;5079116;28;20020;-60
2022/03/30 03:47:41;;;;;;;21.85;8.88;;;11.60;49.60;;;;;;5080660;28;20103;-60
2022/03/30 03:50:08;;;;;;;25.90;8.68;;;11.60;49.70;;;;;;5084041;28;20043;-59
2022/03/30 03:52:33;;;;;;;26.90;8.73;;;11.60;49.90;;;;;;5085151;28;20048;-60
2022/03/30 03:54:59;;;;;;;25.00;8.90;;;11.60;50.00;;;;;;5086603;28;20027;-60
2022/03/30 03:57:25;;;;;;;22.63;8.50;;;11.60;50.00;;;;;;5081626;28;20016;-59
2022/03/30 03:59:51;;;;;;;27.45;9.48;;;11.60;50.10;;;;;;5085787;28;20027;-60
2022/03/30 04:02:17;;;;;;;35.05;10.77;;;11.50;50.10;;;;;;5079702;28;20052;-60
2022/03/30 04:04:44;;;;;;;26.10;10.20;;;11.50;50.10;;;;;;5080820;28;20076;-60
2022/03/30 04:07:10;;;;;;;28.92;10.02;;;11.50;50.10;;;;;;5084157;28;20020;-60
2022/03/30 04:09:36;;;;;;;18.67;9.00;;;11.50;50.10;;;;;;5084182;28;20111;-60
2022/03/30 04:12:03;;;;;;;24.67;11.13;;;11.50;50.10;;;;;;5082353;28;20025;-60
2022/03/30 04:14:28;;;;;;;22.98;9.80;;;11.50;50.10;;;;;;5083557;28;20060;-61
2022/03/30 04:16:54;;;;;;;29.60;11.00;;;11.50;50.20;;;;;;5074532;28;20046;-59
2022/03/30 04:19:20;;;;;;;24.83;11.50;;;11.50;50.30;;;;;;5080267;28;20040;-60
2022/03/30 04:21:46;;;;;;;28.45;10.48;;;11.50;50.40;;;;;;5074068;28;20044;-60
2022/03/30 04:24:12;;;;;;;27.67;11.10;;;11.40;50.40;;;;;;5020172;28;20404;-59
2022/03/30 04:26:39;;;;;;;17.95;10.70;;;11.40;50.50;;;;;;5084514;28;20035;-60
2022/03/30 04:29:05;;;;;;;20.25;9.80;;;11.40;50.50;;;;;;5084401;28;20112;-59
2022/03/30 04:31:32;;;;;;;22.75;9.85;;;11.50;50.70;;;;;;5088844;28;20027;-60
2022/03/30 04:33:57;;;;;;;27.80;10.50;;;11.50;50.70;;;;;;5085768;28;20052;-59
2022/03/30 04:36:23;;;;;;;27.15;9.43;;;11.50;50.70;;;;;;5084941;28;20082;-61
2022/03/30 04:38:50;;;;;;;26.35;10.18;;;11.40;50.70;;;;;;5084224;28;20032;-60
2022/03/30 04:41:15;;;;;;;25.95;11.00;;;11.40;50.90;;;;;;5087108;28;20099;-60
2022/03/30 04:43:41;;;;;;;30.70;11.00;;;11.40;50.90;;;;;;5089514;28;20576;-60
2022/03/30 04:46:08;;;;;;;22.83;10.75;;;11.40;51.00;;;;;;5084965;28;20020;-60
2022/03/30 04:48:34;;;;;;;23.33;10.70;;;11.40;51.10;;;;;;5079827;28;20025;-59
2022/03/30 04:51:00;;;;;;;25.88;10.73;;;11.40;51.30;;;;;;5083133;28;20084;-60
2022/03/30 04:53:26;;;;;;;25.08;9.88;;;11.40;51.50;;;;;;5083210;28;20053;-59
2022/03/30 04:55:52;;;;;;;27.52;10.55;;;11.40;51.80;;;;;;5103211;28;20046;-60
2022/03/30 04:58:17;;;;;;;28.10;11.13;;;11.40;51.90;;;;;;5083857;28;20032;-61
2022/03/30 05:00:43;;;;;;;16.40;9.15;;;11.40;52.10;;;;;;5093137;28;20028;-60
2022/03/30 05:03:09;;;;;;;21.55;9.77;;;11.40;52.10;;;;;;5083501;28;20037;-60
2022/03/30 05:05:35;;;;;;;27.70;10.38;;;11.40;52.20;;;;;;5084985;28;20074;-60
2022/03/30 05:08:01;;;;;;;32.22;11.57;;;11.40;52.30;;;;;;5085567;28;20063;-59
2022/03/30 05:10:28;;;;;;;26.35;10.70;;;11.40;52.40;;;;;;5091171;28;20138;-60
2022/03/30 05:12:55;;;;;;;28.83;10.95;;;11.40;52.50;;;;;;5083731;28;20025;-60
2022/03/30 05:15:23;;;;;;;24.08;10.05;;;11.40;52.60;;;;;;5082404;28;20040;-60
2022/03/30 05:17:49;;;;;;;32.58;11.13;;;11.40;52.90;;;;;;5083837;28;20086;-59
2022/03/30 05:20:17;;;;;;;25.70;10.63;;;11.50;53.20;;;;;;5083248;28;20033;-60
2022/03/30 05:22:43;;;;;;;26.63;9.25;;;11.50;53.60;;;;;;5085599;28;20036;-60
2022/03/30 05:25:10;;;;;;;24.73;10.00;;;11.50;53.60;;;;;;5082610;28;20032;-60
2022/03/30 05:27:38;;;;;;;24.52;8.88;;;11.50;53.50;;;;;;5089626;28;20083;-60
2022/03/30 05:30:05;;;;;;;30.45;10.27;;;11.50;53.60;;;;;;5084425;28;20020;-61
2022/03/30 05:32:31;;;;;;;31.85;10.10;;;11.60;53.60;;;;;;5094522;28;20111;-60
2022/03/30 05:34:57;;;;;;;25.55;9.32;;;11.60;53.70;;;;;;5084452;28;20020;-60
2022/03/30 05:37:24;;;;;;;26.48;9.52;;;11.60;53.80;;;;;;5084689;28;20016;-60
2022/03/30 05:39:50;;;;;;;23.17;9.68;;;11.60;54.00;;;;;;5096789;28;20024;-60
2022/03/30 05:42:16;;;;;;;25.02;9.45;;;11.60;54.20;;;;;;5096709;28;20048;-60
2022/03/30 05:44:42;;;;;;;31.92;9.85;;;11.60;54.20;;;;;;5084828;28;20036;-60
2022/03/30 05:47:09;;;;;;;26.67;9.55;;;11.70;54.20;;;;;;5088295;28;20040;-60
2022/03/30 05:49:36;;;;;;;28.95;10.25;;;11.70;54.70;;;;;;5085748;28;20048;-60
2022/03/30 05:52:02;;;;;;;36.65;15.82;;;11.70;54.40;;;;;;5084375;28;20060;-60
2022/03/30 05:54:28;;;;;;;27.08;13.05;;;11.70;54.70;;;;;;5085410;28;20036;-59
2022/03/30 05:57:02;;;;;;;32.58;10.20;;;11.70;55.20;;;;;;5085572;28;20426;-60
2022/03/30 05:59:39;;;;;;;28.90;10.52;;;11.70;54.70;;;;;;5070243;28;20382;-60
2022/03/30 06:02:08;;;;;;;37.92;10.82;;;11.70;54.70;;;;;;5082019;28;20045;-60
2022/03/30 06:04:35;;;;;;;36.35;10.13;;;11.60;54.80;;;;;;5066859;28;20028;-60
2022/03/30 06:07:01;;;;;;;27.17;9.77;;;11.60;54.90;;;;;;5082870;28;20082;-60
2022/03/30 06:09:27;;;;;;;25.50;9.27;;;11.60;54.70;;;;;;5085407;28;20051;-60
2022/03/30 06:11:54;;;;;;;32.13;9.60;;;11.60;54.90;;;;;;5087836;28;20028;-60
2022/03/30 06:14:20;;;;;;;26.17;9.40;;;11.60;55.40;;;;;;5086955;28;20048;-61
2022/03/30 06:16:47;;;;;;;29.45;9.90;;;11.60;55.20;;;;;;5087131;28;20024;-61
2022/03/30 06:19:13;;;;;;;30.77;9.68;;;11.60;55.20;;;;;;5088314;28;20021;-60
2022/03/30 06:21:42;;;;;;;39.53;11.15;;;11.70;55.40;;;;;;5098007;28;20100;-60
2022/03/30 06:24:10;;;;;;;31.20;11.02;;;11.70;55.90;;;;;;5045856;28;20486;-60
2022/03/30 06:26:41;;;;;;;28.83;10.77;;;11.70;56.60;;;;;;5086146;28;20051;-60
2022/03/30 06:29:07;;;;;;;31.58;11.23;;;11.70;56.70;;;;;;5087202;28;20024;-60
2022/03/30 06:31:33;;;;;;;28.67;10.93;;;11.70;56.70;;;;;;5098333;28;20034;-60
2022/03/30 06:33:59;;;;;;;32.80;11.02;;;11.70;56.70;;;;;;5085539;28;20131;-61
2022/03/30 06:36:24;;;;;;;34.75;10.43;;;11.70;56.80;;;;;;5089242;28;20028;-59
2022/03/30 06:38:50;;;;;;;42.47;10.77;;;11.70;56.90;;;;;;5086495;28;20448;-60
2022/03/30 06:41:19;;;;;;;34.15;11.30;;;11.70;56.80;;;;;;5094328;28;20032;-59
2022/03/30 06:43:46;;;;;;;29.98;10.07;;;11.70;56.80;;;;;;5086514;28;20043;-60
2022/03/30 06:46:15;;;;;;;29.45;9.90;;;11.70;57.20;;;;;;5086977;28;20036;-60
2022/03/30 06:48:42;;;;;;;25.60;9.38;;;11.70;57.20;;;;;;5104859;28;20028;-60
2022/03/30 06:51:08;;;;;;;28.77;10.20;;;11.70;57.00;;;;;;5093148;28;20054;-60
2022/03/30 06:53:34;;;;;;;36.17;11.50;;;11.70;57.40;;;;;;5099337;28;20028;-60
2022/03/30 06:56:00;;;;;;;25.88;9.45;;;11.70;57.90;;;;;;5085950;28;20039;-60
2022/03/30 06:58:25;;;;;;;36.60;10.40;;;11.70;58.20;;;;;;5106024;28;20067;-60
2022/03/30 07:00:52;;;;;;;26.52;10.20;;;11.80;58.50;;;;;;5086487;28;20086;-61
2022/03/30 07:03:18;;;;;;;32.25;10.25;;;11.80;58.60;;;;;;5087475;28;20028;-60
2022/03/30 07:05:44;;;;;;;30.50;10.60;;;11.80;58.80;;;;;;5089811;28;20081;-60
2022/03/30 07:10:54;;;;;;;26.08;9.63;;;11.90;58.90;;;;;;5088284;28;21414;-60
2022/03/30 07:13:22;;;;;;;25.90;9.73;;;12.00;58.80;;;;;;5085891;28;20048;-61
2022/03/30 07:15:48;;;;;;;28.73;10.27;;;12.00;59.00;;;;;;5095559;28;20273;-60
2022/03/30 07:18:13;;;;;;;30.02;10.35;;;12.10;59.10;;;;;;5087374;28;20024;-59
2022/03/30 07:20:39;;;;;;;29.73;10.30;;;12.10;58.90;;;;;;5064554;28;20036;-60
2022/03/30 07:23:05;;;;;;;24.35;9.88;;;12.20;59.00;;;;;;5096681;28;20066;-60
2022/03/30 07:25:31;;;;;;;33.22;10.35;;;12.20;59.00;;;;;;5089948;28;20073;-60
2022/03/30 07:27:59;;;;;;;32.20;9.90;;;12.30;59.10;;;;;;5082763;28;20033;-59
2022/03/30 07:30:25;;;;;;;29.17;9.73;;;12.30;59.20;;;;;;5093444;28;20021;-60
2022/03/30 07:32:53;;;;;;;30.98;10.52;;;12.40;59.00;;;;;;5077688;28;20052;-60
2022/03/30 07:35:20;;;;;;;31.85;11.00;;;12.40;58.90;;;;;;5079364;28;20024;-60
2022/03/30 07:37:46;;;;;;;25.48;10.45;;;12.40;59.50;;;;;;5086349;28;20031;-60
2022/03/30 07:40:18;;;;;;;31.38;10.45;;;12.50;58.90;;;;;;5084163;28;20032;-61
2022/03/30 07:42:46;;;;;;;28.65;10.75;;;12.50;59.10;;;;;;5081761;28;20028;-59
2022/03/30 07:45:11;;;;;;;40.80;11.10;;;12.50;59.10;;;;;;5077062;28;20029;-59
2022/03/30 07:47:37;;;;;;;28.55;9.80;;;12.60;59.10;;;;;;5087404;28;20109;-59
2022/03/30 07:50:05;;;;;;;27.63;11.05;;;12.70;59.20;;;;;;5081437;28;20024;-59
2022/03/30 07:52:30;;;;;;;28.42;10.48;;;12.70;59.30;;;;;;5080087;28;20104;-60
2022/03/30 07:54:56;;;;;;;33.70;11.77;;;12.70;59.20;;;;;;5074539;28;20029;-60
2022/03/30 07:57:26;;;;;;;35.60;12.18;;;12.80;59.10;;;;;;5084994;28;20050;-59
2022/03/30 08:00:00;;;;;;;26.92;11.00;;;12.80;59.20;;;;;;5080454;28;20067;-60
2022/03/30 08:02:27;;;;;;;26.92;11.48;;;12.90;60.10;;;;;;5083260;28;20024;-59
2022/03/30 08:04:53;;;;;;;27.60;11.20;;;12.90;59.20;;;;;;5075867;28;20491;-60
2022/03/30 08:07:19;;;;;;;36.53;11.43;;;13.00;59.30;;;;;;5083779;28;20090;-60
2022/03/30 08:09:45;;;;;;;26.45;10.55;;;13.00;59.10;;;;;;5079774;28;20032;-59
2022/03/30 08:12:14;;;;;;;28.38;10.75;;;13.00;59.20;;;;;;5076294;28;20036;-60
2022/03/30 08:14:40;;;;;;;34.20;10.55;;;13.00;59.30;;;;;;5068579;28;20120;-60
2022/03/30 08:17:06;;;;;;;24.58;9.88;;;13.00;59.10;;;;;;5083859;28;20021;-60
2022/03/30 08:19:32;;;;;;;31.50;10.20;;;13.00;59.00;;;;;;5074550;28;20093;-59
2022/03/30 08:24:46;;;;;;;30.73;10.13;;;13.00;58.90;;;;;;5073523;28;20040;-60
2022/03/30 08:27:16;;;;;;;20.63;8.93;;;13.00;58.70;;;;;;5070278;28;20036;-59
2022/03/30 08:29:44;;;;;;;25.73;9.05;;;13.00;58.70;;;;;;5073287;28;20029;-60
2022/03/30 08:32:11;;;;;;;23.73;9.45;;;13.00;58.70;;;;;;5080117;28;20018;-60
2022/03/30 08:34:36;;;;;;;24.35;8.27;;;13.00;58.80;;;;;;5077189;28;20025;-60
2022/03/30 08:37:02;;;;;;;26.83;10.05;;;12.90;58.70;;;;;;5085263;28;20028;-60
2022/03/30 08:39:28;;;;;;;29.38;9.73;;;13.00;58.90;;;;;;5077501;28;20394;-60
2022/03/30 08:41:54;;;;;;;33.17;10.48;;;13.00;59.70;;;;;;5066950;28;20083;-60
2022/03/30 08:44:21;;;;;;;29.80;10.20;;;13.00;59.10;;;;;;5079421;28;20376;-59
2022/03/30 08:46:47;;;;;;;32.50;9.63;;;13.00;59.70;;;;;;5072312;28;20119;-61
2022/03/30 08:49:14;;;;;;;30.25;10.65;;;13.00;59.10;;;;;;5071837;28;20083;-60
2022/03/30 08:51:41;;;;;;;25.27;9.73;;;13.00;59.10;;;;;;5079590;28;20041;-60
2022/03/30 08:54:12;;;;;;;28.80;10.05;;;13.00;59.20;;;;;;5070633;28;20399;-60
2022/03/30 08:56:39;;;;;;;34.22;10.10;;;13.00;59.60;;;;;;5065766;28;20085;-60
2022/03/30 08:59:07;;;;;;;34.30;10.40;;;13.00;59.30;;;;;;5050252;28;20104;-59
2022/03/30 09:01:35;;;;;;;26.00;10.18;;;13.00;59.40;;;;;;5070693;28;20025;-60
2022/03/30 09:04:03;;;;;;;29.13;8.48;;;13.10;59.40;;;;;;5065814;28;20043;-59
2022/03/30 09:06:44;;;;;;;24.70;8.27;;;13.10;59.40;;;;;;5043807;28;20041;-60
2022/03/30 09:09:11;;;;;;;30.65;7.75;;;13.10;60.00;;;;;;5082822;28;20063;-60
2022/03/30 09:11:45;;;;;;;28.00;8.15;;;13.10;59.20;;;;;;5063040;28;20140;-60
2022/03/30 09:14:11;;;;;;;28.98;8.30;;;13.20;59.80;;;;;;5072073;28;20017;-60
2022/03/30 09:16:46;;;;;;;29.98;8.32;;;13.20;59.10;;;;;;5055784;28;20026;-59
2022/03/30 09:19:15;;;;;;;30.75;7.85;;;13.20;59.20;;;;;;5051582;28;20103;-60
2022/03/30 09:21:58;;;;;;;29.50;7.55;;;13.20;58.70;;;;;;5056187;28;20013;-60
2022/03/30 09:24:33;;;;;;;21.80;6.50;;;13.20;59.10;;;;;;4952731;28;20115;-60
2022/03/30 09:27:00;;;;;;;22.92;7.65;;;13.10;58.90;;;;;;5058728;28;20038;-59
2022/03/30 09:29:32;;;;;;;24.33;7.25;;;13.20;59.10;;;;;;5063570;28;20025;-60
2022/03/30 09:32:02;;;;;;;36.55;7.60;;;13.10;59.90;;;;;;5063305;28;20025;-60
2022/03/30 09:34:33;;;;;;;32.80;7.68;;;13.10;60.00;;;;;;5062935;28;20512;-60
2022/03/30 09:36:59;;;;;;;30.80;7.47;;;13.20;60.20;;;;;;5050184;28;20403;-60
2022/03/30 09:39:36;;;;;;;25.95;7.72;;;13.20;59.90;;;;;;5063000;28;20021;-60
2022/03/30 09:42:04;;;;;;;27.00;7.25;;;13.20;60.60;;;;;;5046206;28;20049;-60
2022/03/30 09:44:43;;;;;;;24.05;6.45;;;13.20;60.00;;;;;;5055488;28;20445;-60
2022/03/30 09:47:09;;;;;;;22.85;6.68;;;13.30;60.10;;;;;;5061440;28;20025;-60
2022/03/30 09:49:40;;;;;;;29.60;8.02;;;13.30;59.80;;;;;;5062478;28;20161;-60
2022/03/30 09:52:19;;;;;;;23.23;7.72;;;13.40;60.90;;;;;;5068779;28;20144;-60
2022/03/30 09:54:53;;;;;;;25.63;7.68;;;13.40;61.60;;;;;;5071249;28;20092;-60
2022/03/30 09:57:35;;;;;;;26.73;6.97;;;13.50;60.90;;;;;;5067767;28;20406;-60
2022/03/30 10:00:08;;;;;;;26.50;7.00;;;13.60;61.10;;;;;;5061338;28;20021;-60
2022/03/30 10:02:41;;;;;;;25.45;7.60;;;13.60;60.60;;;;;;5076271;28;20123;-60
2022/03/30 10:05:12;;;;;;;26.55;6.25;;;13.70;60.30;;;;;;5063241;28;20029;-60
2022/03/30 10:07:39;;;;;;;40.42;7.32;;;13.70;60.70;;;;;;5067979;28;20104;-60
2022/03/30 10:10:07;;;;;;;29.55;6.85;;;13.70;60.30;;;;;;5064478;28;20022;-60
2022/03/30 10:12:34;;;;;;;26.95;6.10;;;13.80;60.40;;;;;;5063367;28;20040;-60
2022/03/30 10:15:00;;;;;;;25.95;7.60;;;13.80;59.80;;;;;;5072619;28;20084;-60
2022/03/30 10:17:29;;;;;;;34.67;7.95;;;13.80;59.90;;;;;;5061282;28;20036;-60
2022/03/30 10:19:57;;;;;;;26.67;7.35;;;13.80;59.70;;;;;;5052660;28;20052;-60
2022/03/30 10:22:26;;;;;;;33.92;7.07;;;13.80;59.60;;;;;;5033318;28;20029;-60
2022/03/30 10:25:17;;;;;;;27.92;7.07;;;13.80;59.90;;;;;;5069583;28;20056;-60
2022/03/30 10:28:08;;;;;;;35.17;7.53;;;13.80;61.20;;;;;;5062029;28;20021;-60
2022/03/30 10:30:35;;;;;;;26.02;7.95;;;13.80;60.40;;;;;;5051484;28;20030;-61
2022/03/30 10:33:03;;;;;;;31.17;7.80;;;13.80;60.00;;;;;;5071977;28;20028;-60
2022/03/30 10:35:41;;;;;;;26.00;7.80;;;13.80;60.60;;;;;;5057363;28;20075;-60
2022/03/30 10:38:07;;;;;;;29.95;7.75;;;13.80;61.40;;;;;;5072541;28;20037;-60
2022/03/30 10:40:34;;;;;;;28.52;8.25;;;13.90;60.40;;;;;;5054925;28;20025;-60
2022/03/30 10:43:02;;;;;;;27.70;7.45;;;13.90;60.30;;;;;;5064898;28;20045;-59
2022/03/30 10:45:28;;;;;;;22.80;7.40;;;13.90;60.40;;;;;;5064930;28;20017;-61
2022/03/30 10:48:10;;;;;;;26.33;7.78;;;13.90;60.40;;;;;;5061789;28;20030;-60
2022/03/30 10:50:56;;;;;;;35.05;8.02;;;13.90;61.20;;;;;;5074225;28;20029;-60
2022/03/30 10:53:31;;;;;;;22.77;7.07;;;13.90;59.90;;;;;;5063223;28;20052;-60
2022/03/30 10:56:09;;;;;;;30.67;7.43;;;13.90;60.70;;;;;;5051766;28;20025;-60
2022/03/30 10:59:00;;;;;;;33.75;8.60;;;13.90;61.20;;;;;;5069667;28;20033;-60
2022/03/30 11:01:30;;;;;;;30.85;7.93;;;13.90;61.50;;;;;;5062182;28;20144;-60
2022/03/30 11:04:05;;;;;;;36.95;10.63;;;13.90;60.30;;;;;;5063210;28;20047;-60
2022/03/30 11:06:35;;;;;;;27.10;8.45;;;13.90;60.10;;;;;;5061434;28;20054;-62
2022/03/30 11:09:08;;;;;;;35.40;8.57;;;13.90;60.40;;;;;;5058473;28;20100;-60
2022/03/30 11:11:42;;;;;;;27.95;8.27;;;13.80;60.60;;;;;;5058149;28;20109;-60
2022/03/30 11:14:34;;;;;;;28.80;8.05;;;13.90;61.20;;;;;;5064294;28;20085;-60
2022/03/30 11:17:09;;;;;;;25.45;7.70;;;13.90;61.90;;;;;;5063329;28;20040;-61
2022/03/30 11:19:47;;;;;;;25.17;7.28;;;13.90;61.00;;;;;;5046873;28;20025;-60
2022/03/30 11:22:21;;;;;;;29.17;6.93;;;13.90;61.40;;;;;;5050558;28;20049;-60
2022/03/30 11:25:17;;;;;;;18.95;5.57;;;13.90;60.70;;;;;;5040720;28;20078;-60
2022/03/30 11:27:45;;;;;;;22.50;6.40;;;13.90;61.40;;;;;;5065241;28;20037;-60
2022/03/30 11:30:14;;;;;;;30.02;6.70;;;13.90;60.40;;;;;;5064498;28;20024;-60
2022/03/30 11:32:42;;;;;;;22.83;6.18;;;13.90;60.70;;;;;;5067527;28;20413;-60
2022/03/30 11:35:13;;;;;;;29.95;7.60;;;13.90;60.60;;;;;;5065681;28;20029;-61
2022/03/30 11:37:41;;;;;;;37.33;6.63;;;13.90;60.70;;;;;;5067037;28;20107;-60
2022/03/30 11:40:27;;;;;;;20.45;7.03;;;13.90;60.40;;;;;;5068868;28;20067;-60
2022/03/30 11:42:55;;;;;;;27.83;6.25;;;14.00;62.00;;;;;;5063462;28;20061;-60
2022/03/30 11:45:23;;;;;;;19.73;5.70;;;14.00;60.70;;;;;;5065803;28;20028;-61
2022/03/30 11:47:52;;;;;;;26.73;6.05;;;14.10;60.70;;;;;;5085986;28;20024;-61
2022/03/30 11:50:37;;;;;;;22.85;5.68;;;14.10;60.80;;;;;;5064626;28;20503;-60
2022/03/30 11:53:04;;;;;;;23.63;6.05;;;14.20;60.80;;;;;;5060709;28;20067;-60
2022/03/30 11:55:35;;;;;;;25.40;5.57;;;14.20;59.80;;;;;;5061086;28;20035;-60
2022/03/30 11:58:02;;;;;;;23.25;5.30;;;14.20;59.60;;;;;;5063296;28;20033;-60
2022/03/30 12:00:31;;;;;;;23.42;5.80;;;14.20;59.60;;;;;;5069667;28;20040;-61
2022/03/30 12:02:57;;;;;;;15.63;5.32;;;14.20;59.30;;;;;;5066339;28;20028;-60
2022/03/30 12:05:23;;;;;;;23.27;5.57;;;14.10;59.30;;;;;;5068998;28;20025;-60
2022/03/30 12:07:54;;;;;;;15.15;4.50;;;14.10;59.70;;;;;;5071328;28;20078;-60
2022/03/30 12:10:26;;;;;;;19.17;4.97;;;14.10;59.60;;;;;;5064480;28;20021;-61
2022/03/30 12:12:52;;;;;;;16.33;5.30;;;14.00;59.40;;;;;;5072561;28;20029;-60
2022/03/30 12:15:22;;;;;;;17.65;5.18;;;14.00;59.40;;;;;;5073554;28;20036;-60
2022/03/30 12:17:56;;;;;;;18.67;5.82;;;13.90;60.10;;;;;;5065300;28;20017;-60
2022/03/30 12:20:26;;;;;;;;;;;13.90;59.90;;;;;;5064441;28;20084;-60
2022/03/30 12:23:01;;;;;;;16.17;4.80;;;13.90;59.30;;;;;;5073465;28;19959;-60
2022/03/30 12:25:30;;;;;;;23.05;5.07;;;13.90;59.30;;;;;;5071772;28;20073;-60
2022/03/30 12:27:56;;;;;;;17.60;4.70;;;13.80;59.50;;;;;;5072536;28;20032;-60
2022/03/30 12:30:23;;;;;;;14.35;5.13;;;13.80;59.30;;;;;;5064549;28;20062;-60
2022/03/30 12:32:49;;;;;;;18.00;4.68;;;13.80;59.50;;;;;;5070574;28;20055;-60
2022/03/30 12:35:17;;;;;;;14.93;4.68;;;13.70;59.50;;;;;;5064446;28;20029;-60
2022/03/30 12:37:46;;;;;;;21.48;5.80;;;13.70;59.70;;;;;;5075071;28;20029;-59
2022/03/30 12:40:13;;;;;;;19.88;4.55;;;13.70;59.90;;;;;;5054685;28;20056;-61
2022/03/30 12:42:40;;;;;;;11.15;4.63;;;13.60;59.90;;;;;;5072089;28;20063;-60
2022/03/30 12:45:11;;;;;;;22.38;5.75;;;13.60;60.20;;;;;;5064031;28;20028;-61